Back to Top

Language: 

My Weather Underground Personal Weather Station Historical Data with Graphs...

Delerius Weather Station Historical Data
Daily Summary for February 25, 2017 Units:  Both    English   Metric
« Previous Day
Next Day »
Daily Weekly Monthly Yearly Custom
  High: Low: Average:
Temperature: 51.4 °F /  10.8 °C 42.9 °F /  6.1 °C 48.3 °F /  9.1 °C
Dew Point: 47.0 °F /  8.3 °C 36.8 °F /  2.7 °C 44.1 °F /  6.7 °C
Humidity: 93 % 77 % 85 %
Wind Speed: 21.0 mph /  33.8 km/h - 13.6 mph /  21.9 km/h
Wind Gust: 32.0 mph /  51.5 km/h - -
Wind:- - SW
Pressure: 29.92 in /  1013.1 hPa 29.58 in /  1001.6 hPa -
Precipitation: 0.04 in /  1.02 mm    
Historical Graphs
 
 
Tabular Data for February 25, 2017
Time Temperature Dew Point Pressure Wind Wind Speed Wind Gust Humidity Rainfall Rate (Hourly) solar Conditions
00:00 43.6 °F /  6.4 °C 36.9 °F /  2.7 °C 29.92 in /  1013.1 hPa SSW 9.0 mph /  14.5 km/h 16.0 mph /  25.7 km/h 77 % 0.00 in /  0 mm 0 W/m2
00:05 43.6 °F /  6.4 °C 36.9 °F /  2.7 °C 29.92 in /  1013.1 hPa South 9.0 mph /  14.5 km/h 16.0 mph /  25.7 km/h 77 % 0.00 in /  0 mm 0 W/m2
00:15 43.5 °F /  6.4 °C 36.8 °F /  2.7 °C 29.92 in /  1013.1 hPa SSW 10.0 mph /  16.1 km/h 14.0 mph /  22.5 km/h 77 % 0.00 in /  0 mm 0 W/m2
00:20 43.5 °F /  6.4 °C 37.1 °F /  2.8 °C 29.91 in /  1012.8 hPa South 8.0 mph /  12.9 km/h 8.0 mph /  12.9 km/h 78 % 0.00 in /  0 mm 0 W/m2
00:30 43.5 °F /  6.4 °C 37.4 °F /  3 °C 29.91 in /  1012.8 hPa SSW 9.0 mph /  14.5 km/h 13.0 mph /  20.9 km/h 79 % 0.00 in /  0 mm 0 W/m2
00:35 43.6 °F /  6.4 °C 37.5 °F /  3.1 °C 29.90 in /  1012.4 hPa SSW 10.0 mph /  16.1 km/h 14.0 mph /  22.5 km/h 79 % 0.00 in /  0 mm 0 W/m2
00:40 43.7 °F /  6.5 °C 37.9 °F /  3.3 °C 29.90 in /  1012.4 hPa SSW 11.0 mph /  17.7 km/h 11.0 mph /  17.7 km/h 80 % 0.00 in /  0 mm 0 W/m2
00:45 43.7 °F /  6.5 °C 38.3 °F /  3.5 °C 29.90 in /  1012.4 hPa SW 11.0 mph /  17.7 km/h 11.0 mph /  17.7 km/h 81 % 0.00 in /  0 mm 0 W/m2
00:50 43.8 °F /  6.6 °C 38.3 °F /  3.5 °C 29.89 in /  1012.1 hPa SW 11.0 mph /  17.7 km/h 16.0 mph /  25.7 km/h 81 % 0.00 in /  0 mm 0 W/m2
00:55 43.8 °F /  6.6 °C 38.7 °F /  3.7 °C 29.89 in /  1012.1 hPa SSW 11.0 mph /  17.7 km/h 16.0 mph /  25.7 km/h 82 % 0.00 in /  0 mm 0 W/m2
01:05 43.7 °F /  6.5 °C 39.5 °F /  4.2 °C 29.89 in /  1012.1 hPa SSW 12.0 mph /  19.3 km/h 18.0 mph /  29 km/h 85 % 0.00 in /  0 mm 0 W/m2
01:10 43.4 °F /  6.3 °C 39.5 °F /  4.2 °C 29.90 in /  1012.4 hPa SW 13.0 mph /  20.9 km/h 13.0 mph /  20.9 km/h 86 % 0.00 in /  0 mm 0 W/m2
01:15 43.3 °F /  6.3 °C 39.7 °F /  4.3 °C 29.90 in /  1012.4 hPa SSW 12.0 mph /  19.3 km/h 16.0 mph /  25.7 km/h 87 % 0.00 in /  0 mm 0 W/m2
01:20 43.3 °F /  6.3 °C 40.0 °F /  4.4 °C 29.90 in /  1012.4 hPa SSW 11.0 mph /  17.7 km/h 11.0 mph /  17.7 km/h 88 % 0.00 in /  0 mm 0 W/m2
01:25 43.2 °F /  6.2 °C 39.9 °F /  4.4 °C 29.89 in /  1012.1 hPa SSE 10.0 mph /  16.1 km/h 18.0 mph /  29 km/h 88 % 0.00 in /  0 mm 0 W/m2
01:30 43.2 °F /  6.2 °C 39.9 °F /  4.4 °C 29.89 in /  1012.1 hPa South 10.0 mph /  16.1 km/h 10.0 mph /  16.1 km/h 88 % 0.00 in /  0 mm 0 W/m2
01:35 43.2 °F /  6.2 °C 39.9 °F /  4.4 °C 29.89 in /  1012.1 hPa South 9.0 mph /  14.5 km/h 16.0 mph /  25.7 km/h 88 % 0.00 in /  0 mm 0 W/m2
01:40 43.2 °F /  6.2 °C 39.9 °F /  4.4 °C 29.89 in /  1012.1 hPa SSE 9.0 mph /  14.5 km/h 9.0 mph /  14.5 km/h 88 % 0.00 in /  0 mm 0 W/m2
01:45 43.2 °F /  6.2 °C 39.9 °F /  4.4 °C 29.88 in /  1011.7 hPa ESE 9.0 mph /  14.5 km/h 12.0 mph /  19.3 km/h 88 % 0.00 in /  0 mm 0 W/m2
01:55 43.1 °F /  6.2 °C 39.8 °F /  4.3 °C 29.86 in /  1011.1 hPa South 11.0 mph /  17.7 km/h 11.0 mph /  17.7 km/h 88 % 0.00 in /  0 mm 0 W/m2
02:00 43.1 °F /  6.2 °C 40.1 °F /  4.5 °C 29.86 in /  1011.1 hPa SSE 10.0 mph /  16.1 km/h 10.0 mph /  16.1 km/h 89 % 0.00 in /  0 mm 0 W/m2
02:05 43.0 °F /  6.1 °C 40.0 °F /  4.4 °C 29.85 in /  1010.7 hPa South 9.0 mph /  14.5 km/h 13.0 mph /  20.9 km/h 89 % 0.00 in /  0 mm 0 W/m2
02:10 43.0 °F /  6.1 °C 40.0 °F /  4.4 °C 29.85 in /  1010.7 hPa South 8.0 mph /  12.9 km/h 8.0 mph /  12.9 km/h 89 % 0.00 in /  0 mm 0 W/m2
02:15 43.0 °F /  6.1 °C 40.3 °F /  4.6 °C 29.84 in /  1010.4 hPa South 8.0 mph /  12.9 km/h 16.0 mph /  25.7 km/h 90 % 0.00 in /  0 mm 0 W/m2
02:20 42.9 °F /  6.1 °C 40.2 °F /  4.6 °C 29.84 in /  1010.4 hPa South 8.0 mph /  12.9 km/h 16.0 mph /  25.7 km/h 90 % 0.00 in /  0 mm 0 W/m2
02:25 42.9 °F /  6.1 °C 40.5 °F /  4.7 °C 29.84 in /  1010.4 hPa SSE 7.0 mph /  11.3 km/h 16.0 mph /  25.7 km/h 91 % 0.06 in /  1.52 mm 0 W/m2
02:30 42.9 °F /  6.1 °C 40.5 °F /  4.7 °C 29.83 in /  1010 hPa SSE 7.0 mph /  11.3 km/h 7.0 mph /  11.3 km/h 91 % 0.06 in /  1.52 mm 0 W/m2
02:40 43.2 °F /  6.2 °C 40.8 °F /  4.9 °C 29.84 in /  1010.4 hPa SSW 6.0 mph /  9.7 km/h 6.0 mph /  9.7 km/h 91 % 0.00 in /  0 mm 0 W/m2
02:45 43.3 °F /  6.3 °C 41.1 °F /  5.1 °C 29.84 in /  1010.4 hPa SSE 4.0 mph /  6.4 km/h 16.0 mph /  25.7 km/h 92 % 0.00 in /  0 mm 0 W/m2
02:55 43.6 °F /  6.4 °C 41.1 °F /  5.1 °C 29.84 in /  1010.4 hPa SW 5.0 mph /  8 km/h 16.0 mph /  25.7 km/h 91 % 0.00 in /  0 mm 0 W/m2
03:00 43.9 °F /  6.6 °C 41.4 °F /  5.2 °C 29.83 in /  1010 hPa SW 9.0 mph /  14.5 km/h 16.0 mph /  25.7 km/h 91 % 0.00 in /  0 mm 0 W/m2
03:05 44.1 °F /  6.7 °C 41.6 °F /  5.3 °C 29.83 in /  1010 hPa SSW 10.0 mph /  16.1 km/h 16.0 mph /  25.7 km/h 91 % 0.00 in /  0 mm 0 W/m2
03:15 44.3 °F /  6.8 °C 41.6 °F /  5.3 °C 29.81 in /  1009.4 hPa SSW 12.0 mph /  19.3 km/h 12.0 mph /  19.3 km/h 90 % 0.00 in /  0 mm 0 W/m2
03:20 44.5 °F /  6.9 °C 41.7 °F /  5.4 °C 29.81 in /  1009.4 hPa SSW 11.0 mph /  17.7 km/h 16.0 mph /  25.7 km/h 90 % 0.00 in /  0 mm 0 W/m2
03:25 44.6 °F /  7 °C 41.8 °F /  5.4 °C 29.81 in /  1009.4 hPa SW 11.0 mph /  17.7 km/h 16.0 mph /  25.7 km/h 90 % 0.00 in /  0 mm 0 W/m2
03:30 44.9 °F /  7.2 °C 42.1 °F /  5.6 °C 29.81 in /  1009.4 hPa SW 13.0 mph /  20.9 km/h 20.0 mph /  32.2 km/h 90 % 0.00 in /  0 mm 0 W/m2
03:35 45.0 °F /  7.2 °C 42.2 °F /  5.7 °C 29.81 in /  1009.4 hPa SSW 13.0 mph /  20.9 km/h 20.0 mph /  32.2 km/h 90 % 0.00 in /  0 mm 0 W/m2
03:45 45.1 °F /  7.3 °C 42.1 °F /  5.6 °C 29.80 in /  1009 hPa South 11.0 mph /  17.7 km/h 16.0 mph /  25.7 km/h 89 % 0.00 in /  0 mm 0 W/m2
03:50 45.2 °F /  7.3 °C 42.2 °F /  5.7 °C 29.79 in /  1008.7 hPa SW 12.0 mph /  19.3 km/h 16.0 mph /  25.7 km/h 89 % 0.00 in /  0 mm 0 W/m2
03:55 45.3 °F /  7.4 °C 42.2 °F /  5.7 °C 29.79 in /  1008.7 hPa SW 12.0 mph /  19.3 km/h 16.0 mph /  25.7 km/h 89 % 0.00 in /  0 mm 0 W/m2
04:00 45.4 °F /  7.4 °C 42.3 °F /  5.7 °C 29.79 in /  1008.7 hPa SW 10.0 mph /  16.1 km/h 10.0 mph /  16.1 km/h 89 % 0.00 in /  0 mm 0 W/m2
04:05 45.4 °F /  7.4 °C 42.3 °F /  5.7 °C 29.79 in /  1008.7 hPa West 9.0 mph /  14.5 km/h 16.0 mph /  25.7 km/h 89 % 0.00 in /  0 mm 0 W/m2
04:10 45.5 °F /  7.5 °C 42.4 °F /  5.8 °C 29.80 in /  1009 hPa SW 9.0 mph /  14.5 km/h 19.0 mph /  30.6 km/h 89 % 0.00 in /  0 mm 0 W/m2
04:20 45.7 °F /  7.6 °C 42.3 °F /  5.7 °C 29.79 in /  1008.7 hPa West 14.0 mph /  22.5 km/h 16.0 mph /  25.7 km/h 88 % 0.00 in /  0 mm 0 W/m2
04:25 45.8 °F /  7.7 °C 42.4 °F /  5.8 °C 29.79 in /  1008.7 hPa West 14.0 mph /  22.5 km/h 16.0 mph /  25.7 km/h 88 % 0.00 in /  0 mm 0 W/m2
04:30 45.9 °F /  7.7 °C 42.2 °F /  5.7 °C 29.79 in /  1008.7 hPa WSW 14.0 mph /  22.5 km/h 16.0 mph /  25.7 km/h 87 % 0.00 in /  0 mm 0 W/m2
04:35 46.0 °F /  7.8 °C 42.3 °F /  5.7 °C 29.79 in /  1008.7 hPa WSW 14.0 mph /  22.5 km/h 16.0 mph /  25.7 km/h 87 % 0.00 in /  0 mm 0 W/m2
04:40 46.1 °F /  7.8 °C 42.4 °F /  5.8 °C 29.79 in /  1008.7 hPa SW 15.0 mph /  24.1 km/h 15.0 mph /  24.1 km/h 87 % 0.00 in /  0 mm 0 W/m2
04:45 46.1 °F /  7.8 °C 42.4 °F /  5.8 °C 29.79 in /  1008.7 hPa SSW 14.0 mph /  22.5 km/h 16.0 mph /  25.7 km/h 87 % 0.00 in /  0 mm 0 W/m2
04:50 46.0 °F /  7.8 °C 42.3 °F /  5.7 °C 29.79 in /  1008.7 hPa SW 12.0 mph /  19.3 km/h 12.0 mph /  19.3 km/h 87 % 0.00 in /  0 mm 0 W/m2
05:00 46.2 °F /  7.9 °C 42.5 °F /  5.8 °C 29.78 in /  1008.4 hPa WSW 13.0 mph /  20.9 km/h 16.0 mph /  25.7 km/h 87 % 0.00 in /  0 mm 0 W/m2
05:05 46.3 °F /  7.9 °C 42.3 °F /  5.7 °C 29.78 in /  1008.4 hPa SW 13.0 mph /  20.9 km/h 18.0 mph /  29 km/h 86 % 0.00 in /  0 mm 0 W/m2
05:10 46.4 °F /  8 °C 42.4 °F /  5.8 °C 29.77 in /  1008 hPa SSW 15.0 mph /  24.1 km/h 15.0 mph /  24.1 km/h 86 % 0.00 in /  0 mm 0 W/m2
05:15 46.4 °F /  8 °C 42.4 °F /  5.8 °C 29.76 in /  1007.7 hPa SW 15.0 mph /  24.1 km/h 22.0 mph /  35.4 km/h 86 % 0.00 in /  0 mm 0 W/m2
05:25 46.4 °F /  8 °C 42.4 °F /  5.8 °C 29.76 in /  1007.7 hPa WSW 16.0 mph /  25.7 km/h 18.0 mph /  29 km/h 86 % 0.00 in /  0 mm 0 W/m2
05:30 46.4 °F /  8 °C 42.4 °F /  5.8 °C 29.75 in /  1007.3 hPa SW 16.0 mph /  25.7 km/h 16.0 mph /  25.7 km/h 86 % 0.00 in /  0 mm 0 W/m2
05:35 46.4 °F /  8 °C 42.4 °F /  5.8 °C 29.75 in /  1007.3 hPa SW 15.0 mph /  24.1 km/h 16.0 mph /  25.7 km/h 86 % 0.00 in /  0 mm 0 W/m2
05:40 46.5 °F /  8.1 °C 42.5 °F /  5.8 °C 29.74 in /  1007 hPa SW 15.0 mph /  24.1 km/h 15.0 mph /  24.1 km/h 86 % 0.00 in /  0 mm 0 W/m2
05:45 46.6 °F /  8.1 °C 42.6 °F /  5.9 °C 29.74 in /  1007 hPa SSW 14.0 mph /  22.5 km/h 16.0 mph /  25.7 km/h 86 % 0.00 in /  0 mm 0 W/m2
05:55 46.7 °F /  8.2 °C 42.4 °F /  5.8 °C 29.74 in /  1007 hPa SW 15.0 mph /  24.1 km/h 19.0 mph /  30.6 km/h 85 % 0.00 in /  0 mm 0 W/m2
06:00 46.8 °F /  8.2 °C 42.5 °F /  5.8 °C 29.74 in /  1007 hPa SW 15.0 mph /  24.1 km/h 25.0 mph /  40.2 km/h 85 % 0.00 in /  0 mm 0 W/m2
06:05 46.8 °F /  8.2 °C 42.5 °F /  5.8 °C 29.73 in /  1006.7 hPa SW 14.0 mph /  22.5 km/h 25.0 mph /  40.2 km/h 85 % 0.00 in /  0 mm 0 W/m2
06:10 46.8 °F /  8.2 °C 42.2 °F /  5.7 °C 29.73 in /  1006.7 hPa SW 14.0 mph /  22.5 km/h 19.0 mph /  30.6 km/h 84 % 0.00 in /  0 mm 0 W/m2
06:15 46.8 °F /  8.2 °C 42.2 °F /  5.7 °C 29.72 in /  1006.3 hPa SW 16.0 mph /  25.7 km/h 21.0 mph /  33.8 km/h 84 % 0.00 in /  0 mm 0 W/m2
06:20 46.8 °F /  8.2 °C 42.2 °F /  5.7 °C 29.71 in /  1006 hPa SW 16.0 mph /  25.7 km/h 16.0 mph /  25.7 km/h 84 % 0.00 in /  0 mm 0 W/m2
06:30 46.6 °F /  8.1 °C 42.0 °F /  5.6 °C 29.71 in /  1006 hPa SW 16.0 mph /  25.7 km/h 22.0 mph /  35.4 km/h 84 % 0.00 in /  0 mm 0 W/m2
06:35 46.7 °F /  8.2 °C 42.1 °F /  5.6 °C 29.72 in /  1006.3 hPa SW 17.0 mph /  27.4 km/h 27.0 mph /  43.5 km/h 84 % 0.00 in /  0 mm 0 W/m2
06:40 46.8 °F /  8.2 °C 41.9 °F /  5.5 °C 29.71 in /  1006 hPa SSW 19.0 mph /  30.6 km/h 19.0 mph /  30.6 km/h 83 % 0.00 in /  0 mm 0 W/m2
06:45 46.8 °F /  8.2 °C 41.9 °F /  5.5 °C 29.71 in /  1006 hPa SSW 19.0 mph /  30.6 km/h 19.0 mph /  30.6 km/h 83 % 0.00 in /  0 mm 0 W/m2
06:50 46.9 °F /  8.3 °C 42.0 °F /  5.6 °C 29.70 in /  1005.6 hPa SSW 19.0 mph /  30.6 km/h 23.0 mph /  37 km/h 83 % 0.00 in /  0 mm 0 W/m2
07:00 46.9 °F /  8.3 °C 42.0 °F /  5.6 °C 29.71 in /  1006 hPa SSW 19.0 mph /  30.6 km/h 21.0 mph /  33.8 km/h 83 % 0.00 in /  0 mm 0 W/m2
07:05 46.9 °F /  8.3 °C 42.0 °F /  5.6 °C 29.70 in /  1005.6 hPa SW 19.0 mph /  30.6 km/h 27.0 mph /  43.5 km/h 83 % 0.00 in /  0 mm 0 W/m2
07:10 47.0 °F /  8.3 °C 42.1 °F /  5.6 °C 29.70 in /  1005.6 hPa SW 21.0 mph /  33.8 km/h 23.0 mph /  37 km/h 83 % 0.00 in /  0 mm 0 W/m2
07:15 47.0 °F /  8.3 °C 42.1 °F /  5.6 °C 29.71 in /  1006 hPa SSW 21.0 mph /  33.8 km/h 23.0 mph /  37 km/h 83 % 0.00 in /  0 mm 7 W/m2
07:20 46.9 °F /  8.3 °C 42.0 °F /  5.6 °C 29.71 in /  1006 hPa SW 19.0 mph /  30.6 km/h 19.0 mph /  30.6 km/h 83 % 0.00 in /  0 mm 11 W/m2
07:25 46.9 °F /  8.3 °C 42.0 °F /  5.6 °C 29.71 in /  1006 hPa WSW 18.0 mph /  29 km/h 19.0 mph /  30.6 km/h 83 % 0.00 in /  0 mm 12 W/m2
07:35 47.1 °F /  8.4 °C 42.2 °F /  5.7 °C 29.71 in /  1006 hPa SW 16.0 mph /  25.7 km/h 20.0 mph /  32.2 km/h 83 % 0.00 in /  0 mm 21 W/m2
07:40 47.3 °F /  8.5 °C 42.1 °F /  5.6 °C 29.71 in /  1006 hPa SW 19.0 mph /  30.6 km/h 25.0 mph /  40.2 km/h 82 % 0.00 in /  0 mm 25 W/m2
07:45 47.5 °F /  8.6 °C 42.3 °F /  5.7 °C 29.71 in /  1006 hPa WSW 20.0 mph /  32.2 km/h 25.0 mph /  40.2 km/h 82 % 0.00 in /  0 mm 30 W/m2
07:50 47.5 °F /  8.6 °C 42.0 °F /  5.6 °C 29.71 in /  1006 hPa SW 19.0 mph /  30.6 km/h 32.0 mph /  51.5 km/h 81 % 0.00 in /  0 mm 37 W/m2
07:55 47.7 °F /  8.7 °C 42.2 °F /  5.7 °C 29.72 in /  1006.3 hPa SW 20.0 mph /  32.2 km/h 32.0 mph /  51.5 km/h 81 % 0.00 in /  0 mm 42 W/m2
08:05 47.9 °F /  8.8 °C 42.3 °F /  5.7 °C 29.72 in /  1006.3 hPa SW 20.0 mph /  32.2 km/h 26.0 mph /  41.8 km/h 81 % 0.00 in /  0 mm 46 W/m2
08:10 47.9 °F /  8.8 °C 42.3 °F /  5.7 °C 29.71 in /  1006 hPa WSW 18.0 mph /  29 km/h 25.0 mph /  40.2 km/h 81 % 0.00 in /  0 mm 47 W/m2
08:15 48.0 °F /  8.9 °C 42.4 °F /  5.8 °C 29.71 in /  1006 hPa SW 19.0 mph /  30.6 km/h 25.0 mph /  40.2 km/h 81 % 0.00 in /  0 mm 51 W/m2
08:20 48.0 °F /  8.9 °C 42.4 °F /  5.8 °C 29.71 in /  1006 hPa WSW 19.0 mph /  30.6 km/h 20.0 mph /  32.2 km/h 81 % 0.00 in /  0 mm 49 W/m2
08:25 48.0 °F /  8.9 °C 42.4 °F /  5.8 °C 29.71 in /  1006 hPa SW 18.0 mph /  29 km/h 20.0 mph /  32.2 km/h 81 % 0.00 in /  0 mm 56 W/m2
08:30 48.0 °F /  8.9 °C 42.4 °F /  5.8 °C 29.71 in /  1006 hPa WSW 18.0 mph /  29 km/h 18.0 mph /  29 km/h 81 % 0.00 in /  0 mm 65 W/m2
08:40 48.2 °F /  9 °C 42.6 °F /  5.9 °C 29.70 in /  1005.6 hPa WSW 19.0 mph /  30.6 km/h 19.0 mph /  30.6 km/h 81 % 0.00 in /  0 mm 83 W/m2
08:45 48.2 °F /  9 °C 42.6 °F /  5.9 °C 29.71 in /  1006 hPa WSW 18.0 mph /  29 km/h 19.0 mph /  30.6 km/h 81 % 0.00 in /  0 mm 72 W/m2
08:50 48.3 °F /  9.1 °C 42.7 °F /  5.9 °C 29.70 in /  1005.6 hPa SW 18.0 mph /  29 km/h 18.0 mph /  29 km/h 81 % 0.00 in /  0 mm 86 W/m2
08:55 48.4 °F /  9.1 °C 42.8 °F /  6 °C 29.70 in /  1005.6 hPa South 20.0 mph /  32.2 km/h 20.0 mph /  32.2 km/h 81 % 0.00 in /  0 mm 102 W/m2
09:00 48.4 °F /  9.1 °C 42.8 °F /  6 °C 29.71 in /  1006 hPa SW 20.0 mph /  32.2 km/h 20.0 mph /  32.2 km/h 81 % 0.00 in /  0 mm 95 W/m2
09:10 48.6 °F /  9.2 °C 42.7 °F /  5.9 °C 29.72 in /  1006.3 hPa SW 20.0 mph /  32.2 km/h 20.0 mph /  32.2 km/h 80 % 0.00 in /  0 mm 84 W/m2
09:15 48.7 °F /  9.3 °C 42.8 °F /  6 °C 29.72 in /  1006.3 hPa SW 20.0 mph /  32.2 km/h 20.0 mph /  32.2 km/h 80 % 0.00 in /  0 mm 76 W/m2
09:20 48.8 °F /  9.3 °C 42.9 °F /  6.1 °C 29.72 in /  1006.3 hPa SW 20.0 mph /  32.2 km/h 30.0 mph /  48.3 km/h 80 % 0.00 in /  0 mm 69 W/m2
09:25 48.7 °F /  9.3 °C 42.8 °F /  6 °C 29.72 in /  1006.3 hPa SW 20.0 mph /  32.2 km/h 30.0 mph /  48.3 km/h 80 % 0.00 in /  0 mm 54 W/m2
09:30 48.8 °F /  9.3 °C 42.9 °F /  6.1 °C 29.72 in /  1006.3 hPa SW 20.0 mph /  32.2 km/h 20.0 mph /  32.2 km/h 80 % 0.00 in /  0 mm 65 W/m2
09:35 48.8 °F /  9.3 °C 42.9 °F /  6.1 °C 29.71 in /  1006 hPa SW 18.0 mph /  29 km/h 20.0 mph /  32.2 km/h 80 % 0.00 in /  0 mm 47 W/m2
09:45 48.7 °F /  9.3 °C 43.1 °F /  6.2 °C 29.71 in /  1006 hPa WSW 17.0 mph /  27.4 km/h 20.0 mph /  32.2 km/h 81 % 0.00 in /  0 mm 65 W/m2
09:50 48.7 °F /  9.3 °C 43.1 °F /  6.2 °C 29.70 in /  1005.6 hPa WSW 17.0 mph /  27.4 km/h 17.0 mph /  27.4 km/h 81 % 0.00 in /  0 mm 62 W/m2
09:55 48.6 °F /  9.2 °C 43.0 °F /  6.1 °C 29.71 in /  1006 hPa SW 16.0 mph /  25.7 km/h 18.0 mph /  29 km/h 81 % 0.00 in /  0 mm 74 W/m2
10:00 48.7 °F /  9.3 °C 43.1 °F /  6.2 °C 29.71 in /  1006 hPa WSW 17.0 mph /  27.4 km/h 22.0 mph /  35.4 km/h 81 % 0.00 in /  0 mm 83 W/m2
10:05 48.6 °F /  9.2 °C 43.4 °F /  6.3 °C 29.71 in /  1006 hPa WSW 18.0 mph /  29 km/h 22.0 mph /  35.4 km/h 82 % 0.00 in /  0 mm 72 W/m2
10:15 48.4 °F /  9.1 °C 43.5 °F /  6.4 °C 29.70 in /  1005.6 hPa WSW 18.0 mph /  29 km/h 18.0 mph /  29 km/h 83 % 0.00 in /  0 mm 42 W/m2
10:20 48.4 °F /  9.1 °C 43.5 °F /  6.4 °C 29.70 in /  1005.6 hPa WSW 18.0 mph /  29 km/h 23.0 mph /  37 km/h 83 % 0.00 in /  0 mm 47 W/m2
10:25 48.5 °F /  9.2 °C 43.6 °F /  6.4 °C 29.70 in /  1005.6 hPa SSW 19.0 mph /  30.6 km/h 23.0 mph /  37 km/h 83 % 0.00 in /  0 mm 56 W/m2
10:30 48.6 °F /  9.2 °C 43.7 °F /  6.5 °C 29.69 in /  1005.3 hPa SW 20.0 mph /  32.2 km/h 31.0 mph /  49.9 km/h 83 % 0.00 in /  0 mm 56 W/m2
10:40 48.6 °F /  9.2 °C 43.7 °F /  6.5 °C 29.69 in /  1005.3 hPa SW 17.0 mph /  27.4 km/h 17.0 mph /  27.4 km/h 83 % 0.00 in /  0 mm 67 W/m2
10:45 48.5 °F /  9.2 °C 43.6 °F /  6.4 °C 29.69 in /  1005.3 hPa West 19.0 mph /  30.6 km/h 22.0 mph /  35.4 km/h 83 % 0.00 in /  0 mm 84 W/m2
10:55 48.6 °F /  9.2 °C 44.0 °F /  6.7 °C 29.68 in /  1005 hPa SW 16.0 mph /  25.7 km/h 21.0 mph /  33.8 km/h 84 % 0.00 in /  0 mm 104 W/m2
11:00 48.8 °F /  9.3 °C 44.2 °F /  6.8 °C 29.68 in /  1005 hPa SW 17.0 mph /  27.4 km/h 19.0 mph /  30.6 km/h 84 % 0.00 in /  0 mm 116 W/m2
11:05 48.9 °F /  9.4 °C 44.0 °F /  6.7 °C 29.68 in /  1005 hPa WSW 18.0 mph /  29 km/h 19.0 mph /  30.6 km/h 83 % 0.00 in /  0 mm 95 W/m2
11:10 48.9 °F /  9.4 °C 44.0 °F /  6.7 °C 29.68 in /  1005 hPa SW 19.0 mph /  30.6 km/h 19.0 mph /  30.6 km/h 83 % 0.00 in /  0 mm 74 W/m2
11:15 49.0 °F /  9.4 °C 44.1 °F /  6.7 °C 29.69 in /  1005.3 hPa SW 21.0 mph /  33.8 km/h 21.0 mph /  33.8 km/h 83 % 0.00 in /  0 mm 83 W/m2
11:25 49.1 °F /  9.5 °C 44.2 °F /  6.8 °C 29.69 in /  1005.3 hPa SW 21.0 mph /  33.8 km/h 23.0 mph /  37 km/h 83 % 0.00 in /  0 mm 139 W/m2
11:30 49.1 °F /  9.5 °C 44.2 °F /  6.8 °C 29.69 in /  1005.3 hPa SW 18.0 mph /  29 km/h 21.0 mph /  33.8 km/h 83 % 0.00 in /  0 mm 178 W/m2
11:35 49.3 °F /  9.6 °C 44.4 °F /  6.9 °C 29.68 in /  1005 hPa SW 16.0 mph /  25.7 km/h 21.0 mph /  33.8 km/h 83 % 0.00 in /  0 mm 153 W/m2
11:40 49.4 °F /  9.7 °C 44.5 °F /  6.9 °C 29.69 in /  1005.3 hPa SW 15.0 mph /  24.1 km/h 15.0 mph /  24.1 km/h 83 % 0.00 in /  0 mm 120 W/m2
11:45 49.5 °F /  9.7 °C 44.6 °F /  7 °C 29.68 in /  1005 hPa SW 14.0 mph /  22.5 km/h 18.0 mph /  29 km/h 83 % 0.00 in /  0 mm 88 W/m2
11:55 49.6 °F /  9.8 °C 44.3 °F /  6.8 °C 29.68 in /  1005 hPa SW 14.0 mph /  22.5 km/h 14.0 mph /  22.5 km/h 82 % 0.00 in /  0 mm 93 W/m2
12:00 49.7 °F /  9.8 °C 44.4 °F /  6.9 °C 29.68 in /  1005 hPa WSW 16.0 mph /  25.7 km/h 18.0 mph /  29 km/h 82 % 0.00 in /  0 mm 102 W/m2
12:05 49.8 °F /  9.9 °C 44.5 °F /  6.9 °C 29.68 in /  1005 hPa SW 16.0 mph /  25.7 km/h 18.0 mph /  29 km/h 82 % 0.00 in /  0 mm 67 W/m2
12:15 49.8 °F /  9.9 °C 44.5 °F /  6.9 °C 29.68 in /  1005 hPa SSW 14.0 mph /  22.5 km/h 16.0 mph /  25.7 km/h 82 % 0.00 in /  0 mm 70 W/m2
12:20 49.8 °F /  9.9 °C 44.5 °F /  6.9 °C 29.67 in /  1004.6 hPa SSW 12.0 mph /  19.3 km/h 12.0 mph /  19.3 km/h 82 % 0.00 in /  0 mm 76 W/m2
12:30 49.9 °F /  9.9 °C 44.6 °F /  7 °C 29.68 in /  1005 hPa SW 14.0 mph /  22.5 km/h 19.0 mph /  30.6 km/h 82 % 0.00 in /  0 mm 47 W/m2
12:35 50.0 °F /  10 °C 44.7 °F /  7.1 °C 29.68 in /  1005 hPa SW 14.0 mph /  22.5 km/h 19.0 mph /  30.6 km/h 82 % 0.00 in /  0 mm 56 W/m2
12:40 50.0 °F /  10 °C 44.7 °F /  7.1 °C 29.67 in /  1004.6 hPa SSW 13.0 mph /  20.9 km/h 16.0 mph /  25.7 km/h 82 % 0.00 in /  0 mm 67 W/m2
12:45 50.0 °F /  10 °C 44.7 °F /  7.1 °C 29.68 in /  1005 hPa WSW 12.0 mph /  19.3 km/h 16.0 mph /  25.7 km/h 82 % 0.00 in /  0 mm 58 W/m2
12:50 50.1 °F /  10.1 °C 44.8 °F /  7.1 °C 29.67 in /  1004.6 hPa SSE 11.0 mph /  17.7 km/h 11.0 mph /  17.7 km/h 82 % 0.00 in /  0 mm 63 W/m2
12:55 50.2 °F /  10.1 °C 44.9 °F /  7.2 °C 29.67 in /  1004.6 hPa WSW 9.0 mph /  14.5 km/h 16.0 mph /  25.7 km/h 82 % 0.00 in /  0 mm 105 W/m2
13:00 50.3 °F /  10.2 °C 45.0 °F /  7.2 °C 29.67 in /  1004.6 hPa SW 8.0 mph /  12.9 km/h 18.0 mph /  29 km/h 82 % 0.00 in /  0 mm 97 W/m2
13:05 50.5 °F /  10.3 °C 45.2 °F /  7.3 °C 29.67 in /  1004.6 hPa SW 9.0 mph /  14.5 km/h 18.0 mph /  29 km/h 82 % 0.00 in /  0 mm 135 W/m2
13:10 50.7 °F /  10.4 °C 45.4 °F /  7.4 °C 29.66 in /  1004.3 hPa WSW 11.0 mph /  17.7 km/h 11.0 mph /  17.7 km/h 82 % 0.00 in /  0 mm 186 W/m2
13:15 50.9 °F /  10.5 °C 45.6 °F /  7.6 °C 29.66 in /  1004.3 hPa WSW 12.0 mph /  19.3 km/h 12.0 mph /  19.3 km/h 82 % 0.00 in /  0 mm 209 W/m2
13:20 51.1 °F /  10.6 °C 45.8 °F /  7.7 °C 29.66 in /  1004.3 hPa SSW 11.0 mph /  17.7 km/h 16.0 mph /  25.7 km/h 82 % 0.00 in /  0 mm 178 W/m2
13:30 51.3 °F /  10.7 °C 45.7 °F /  7.6 °C 29.66 in /  1004.3 hPa SSW 15.0 mph /  24.1 km/h 20.0 mph /  32.2 km/h 81 % 0.00 in /  0 mm 137 W/m2
13:40 51.3 °F /  10.7 °C 45.7 °F /  7.6 °C 29.66 in /  1004.3 hPa SW 16.0 mph /  25.7 km/h 16.0 mph /  25.7 km/h 81 % 0.00 in /  0 mm 169 W/m2
13:45 51.4 °F /  10.8 °C 45.8 °F /  7.7 °C 29.65 in /  1003.9 hPa WSW 15.0 mph /  24.1 km/h 16.0 mph /  25.7 km/h 81 % 0.00 in /  0 mm 114 W/m2
13:50 51.3 °F /  10.7 °C 45.7 °F /  7.6 °C 29.66 in /  1004.3 hPa WSW 13.0 mph /  20.9 km/h 13.0 mph /  20.9 km/h 81 % 0.00 in /  0 mm 95 W/m2
13:55 51.3 °F /  10.7 °C 46.0 °F /  7.8 °C 29.65 in /  1003.9 hPa SW 13.0 mph /  20.9 km/h 16.0 mph /  25.7 km/h 82 % 0.00 in /  0 mm 139 W/m2
14:00 51.2 °F /  10.7 °C 46.2 °F /  7.9 °C 29.66 in /  1004.3 hPa South 12.0 mph /  19.3 km/h 16.0 mph /  25.7 km/h 83 % 0.00 in /  0 mm 105 W/m2
14:10 50.9 °F /  10.5 °C 46.2 °F /  7.9 °C 29.65 in /  1003.9 hPa WSW 13.0 mph /  20.9 km/h 16.0 mph /  25.7 km/h 84 % 0.00 in /  0 mm 100 W/m2
14:15 50.6 °F /  10.3 °C 46.3 °F /  7.9 °C 29.65 in /  1003.9 hPa WSW 12.0 mph /  19.3 km/h 16.0 mph /  25.7 km/h 85 % 0.00 in /  0 mm 91 W/m2
14:20 50.5 °F /  10.3 °C 46.2 °F /  7.9 °C 29.65 in /  1003.9 hPa SSW 12.0 mph /  19.3 km/h 16.0 mph /  25.7 km/h 85 % 0.00 in /  0 mm 109 W/m2
14:25 50.4 °F /  10.2 °C 46.1 °F /  7.8 °C 29.64 in /  1003.6 hPa South 13.0 mph /  20.9 km/h 16.0 mph /  25.7 km/h 85 % 0.00 in /  0 mm 109 W/m2
14:30 50.4 °F /  10.2 °C 46.4 °F /  8 °C 29.65 in /  1003.9 hPa West 14.0 mph /  22.5 km/h 14.0 mph /  22.5 km/h 86 % 0.00 in /  0 mm 88 W/m2
14:35 50.3 °F /  10.2 °C 46.3 °F /  7.9 °C 29.64 in /  1003.6 hPa SW 13.0 mph /  20.9 km/h 16.0 mph /  25.7 km/h 86 % 0.00 in /  0 mm 70 W/m2
14:45 50.2 °F /  10.1 °C 46.2 °F /  7.9 °C 29.64 in /  1003.6 hPa SW 12.0 mph /  19.3 km/h 19.0 mph /  30.6 km/h 86 % 0.00 in /  0 mm 86 W/m2
14:50 50.2 °F /  10.1 °C 46.5 °F /  8.1 °C 29.64 in /  1003.6 hPa SW 13.0 mph /  20.9 km/h 22.0 mph /  35.4 km/h 87 % 0.00 in /  0 mm 84 W/m2
15:00 50.4 °F /  10.2 °C 46.7 °F /  8.2 °C 29.63 in /  1003.3 hPa SW 14.0 mph /  22.5 km/h 14.0 mph /  22.5 km/h 87 % 0.00 in /  0 mm 156 W/m2
15:05 50.5 °F /  10.3 °C 46.8 °F /  8.2 °C 29.63 in /  1003.3 hPa SW 15.0 mph /  24.1 km/h 24.0 mph /  38.6 km/h 87 % 0.00 in /  0 mm 186 W/m2
15:10 50.6 °F /  10.3 °C 46.6 °F /  8.1 °C 29.63 in /  1003.3 hPa WSW 16.0 mph /  25.7 km/h 19.0 mph /  30.6 km/h 86 % 0.00 in /  0 mm 190 W/m2
15:20 50.9 °F /  10.5 °C 46.9 °F /  8.3 °C 29.63 in /  1003.3 hPa SW 14.0 mph /  22.5 km/h 14.0 mph /  22.5 km/h 86 % 0.00 in /  0 mm 95 W/m2
15:25 50.7 °F /  10.4 °C 46.7 °F /  8.2 °C 29.63 in /  1003.3 hPa WSW 13.0 mph /  20.9 km/h 16.0 mph /  25.7 km/h 86 % 0.00 in /  0 mm 86 W/m2
15:30 50.3 °F /  10.2 °C 46.6 °F /  8.1 °C 29.62 in /  1002.9 hPa SW 16.0 mph /  25.7 km/h 16.0 mph /  25.7 km/h 87 % 0.00 in /  0 mm 100 W/m2
15:35 50.2 °F /  10.1 °C 46.8 °F /  8.2 °C 29.62 in /  1002.9 hPa SW 16.0 mph /  25.7 km/h 16.0 mph /  25.7 km/h 88 % 0.00 in /  0 mm 97 W/m2
15:40 50.1 °F /  10.1 °C 46.7 °F /  8.2 °C 29.62 in /  1002.9 hPa SW 14.0 mph /  22.5 km/h 16.0 mph /  25.7 km/h 88 % 0.00 in /  0 mm 91 W/m2
15:50 50.3 °F /  10.2 °C 46.9 °F /  8.3 °C 29.62 in /  1002.9 hPa SW 14.0 mph /  22.5 km/h 14.0 mph /  22.5 km/h 88 % 0.00 in /  0 mm 76 W/m2
15:55 50.5 °F /  10.3 °C 46.8 °F /  8.2 °C 29.62 in /  1002.9 hPa SW 14.0 mph /  22.5 km/h 16.0 mph /  25.7 km/h 87 % 0.00 in /  0 mm 79 W/m2
16:00 50.5 °F /  10.3 °C 46.8 °F /  8.2 °C 29.62 in /  1002.9 hPa SW 13.0 mph /  20.9 km/h 13.0 mph /  20.9 km/h 87 % 0.00 in /  0 mm 74 W/m2
16:05 50.5 °F /  10.3 °C 46.8 °F /  8.2 °C 29.62 in /  1002.9 hPa West 11.0 mph /  17.7 km/h 18.0 mph /  29 km/h 87 % 0.00 in /  0 mm 70 W/m2
16:10 50.6 °F /  10.3 °C 46.9 °F /  8.3 °C 29.62 in /  1002.9 hPa SW 13.0 mph /  20.9 km/h 13.0 mph /  20.9 km/h 87 % 0.00 in /  0 mm 53 W/m2
16:15 50.7 °F /  10.4 °C 46.7 °F /  8.2 °C 29.62 in /  1002.9 hPa WSW 14.0 mph /  22.5 km/h 14.0 mph /  22.5 km/h 86 % 0.00 in /  0 mm 44 W/m2
16:25 50.8 °F /  10.4 °C 46.8 °F /  8.2 °C 29.62 in /  1002.9 hPa SW 13.0 mph /  20.9 km/h 24.0 mph /  38.6 km/h 86 % 0.00 in /  0 mm 30 W/m2
16:30 50.8 °F /  10.4 °C 46.8 °F /  8.2 °C 29.62 in /  1002.9 hPa SSW 14.0 mph /  22.5 km/h 24.0 mph /  38.6 km/h 86 % 0.00 in /  0 mm 39 W/m2
16:35 50.7 °F /  10.4 °C 46.7 °F /  8.2 °C 29.62 in /  1002.9 hPa WSW 14.0 mph /  22.5 km/h 24.0 mph /  38.6 km/h 86 % 0.00 in /  0 mm 39 W/m2
16:40 50.7 °F /  10.4 °C 46.7 °F /  8.2 °C 29.62 in /  1002.9 hPa SW 14.0 mph /  22.5 km/h 14.0 mph /  22.5 km/h 86 % 0.00 in /  0 mm 37 W/m2
16:45 50.7 °F /  10.4 °C 47.0 °F /  8.3 °C 29.62 in /  1002.9 hPa SSW 13.0 mph /  20.9 km/h 24.0 mph /  38.6 km/h 87 % 0.00 in /  0 mm 33 W/m2
16:55 50.7 °F /  10.4 °C 46.7 °F /  8.2 °C 29.62 in /  1002.9 hPa SW 15.0 mph /  24.1 km/h 16.0 mph /  25.7 km/h 86 % 0.00 in /  0 mm 35 W/m2
17:00 50.7 °F /  10.4 °C 47.0 °F /  8.3 °C 29.61 in /  1002.6 hPa WSW 12.0 mph /  19.3 km/h 12.0 mph /  19.3 km/h 87 % 0.00 in /  0 mm 33 W/m2
17:05 50.6 °F /  10.3 °C 46.6 °F /  8.1 °C 29.61 in /  1002.6 hPa West 12.0 mph /  19.3 km/h 16.0 mph /  25.7 km/h 86 % 0.00 in /  0 mm 35 W/m2
17:10 50.6 °F /  10.3 °C 46.9 °F /  8.3 °C 29.61 in /  1002.6 hPa SW 13.0 mph /  20.9 km/h 13.0 mph /  20.9 km/h 87 % 0.00 in /  0 mm 23 W/m2
17:20 50.6 °F /  10.3 °C 46.6 °F /  8.1 °C 29.61 in /  1002.6 hPa SSW 9.0 mph /  14.5 km/h 16.0 mph /  25.7 km/h 86 % 0.00 in /  0 mm 9 W/m2
17:25 50.6 °F /  10.3 °C 46.6 °F /  8.1 °C 29.61 in /  1002.6 hPa SSW 10.0 mph /  16.1 km/h 16.0 mph /  25.7 km/h 86 % 0.00 in /  0 mm 9 W/m2
17:35 50.6 °F /  10.3 °C 46.6 °F /  8.1 °C 29.61 in /  1002.6 hPa SSW 14.0 mph /  22.5 km/h 16.0 mph /  25.7 km/h 86 % 0.00 in /  0 mm 9 W/m2
17:40 50.5 °F /  10.3 °C 46.5 °F /  8.1 °C 29.61 in /  1002.6 hPa WSW 13.0 mph /  20.9 km/h 13.0 mph /  20.9 km/h 86 % 0.00 in /  0 mm 7 W/m2
17:45 50.4 °F /  10.2 °C 46.4 °F /  8 °C 29.61 in /  1002.6 hPa SW 12.0 mph /  19.3 km/h 16.0 mph /  25.7 km/h 86 % 0.00 in /  0 mm 5 W/m2
17:50 50.4 °F /  10.2 °C 46.4 °F /  8 °C 29.61 in /  1002.6 hPa SW 14.0 mph /  22.5 km/h 18.0 mph /  29 km/h 86 % 0.00 in /  0 mm 0 W/m2
17:55 50.4 °F /  10.2 °C 46.4 °F /  8 °C 29.60 in /  1002.3 hPa SW 15.0 mph /  24.1 km/h 18.0 mph /  29 km/h 86 % 0.00 in /  0 mm 0 W/m2
18:05 50.5 °F /  10.3 °C 46.5 °F /  8.1 °C 29.60 in /  1002.3 hPa SSW 18.0 mph /  29 km/h 29.0 mph /  46.7 km/h 86 % 0.00 in /  0 mm 0 W/m2
18:10 50.5 °F /  10.3 °C 46.5 °F /  8.1 °C 29.60 in /  1002.3 hPa SW 19.0 mph /  30.6 km/h 19.0 mph /  30.6 km/h 86 % 0.00 in /  0 mm 0 W/m2
18:15 50.6 °F /  10.3 °C 46.6 °F /  8.1 °C 29.60 in /  1002.3 hPa WSW 20.0 mph /  32.2 km/h 20.0 mph /  32.2 km/h 86 % 0.00 in /  0 mm 0 W/m2
18:20 50.7 °F /  10.4 °C 46.4 °F /  8 °C 29.60 in /  1002.3 hPa SW 20.0 mph /  32.2 km/h 20.0 mph /  32.2 km/h 85 % 0.00 in /  0 mm 0 W/m2
18:25 50.8 °F /  10.4 °C 46.5 °F /  8.1 °C 29.60 in /  1002.3 hPa SSW 18.0 mph /  29 km/h 20.0 mph /  32.2 km/h 85 % 0.00 in /  0 mm 0 W/m2
18:35 50.9 °F /  10.5 °C 46.6 °F /  8.1 °C 29.59 in /  1001.9 hPa SW 16.0 mph /  25.7 km/h 24.0 mph /  38.6 km/h 85 % 0.00 in /  0 mm 0 W/m2
18:40 50.9 °F /  10.5 °C 46.6 °F /  8.1 °C 29.59 in /  1001.9 hPa SW 17.0 mph /  27.4 km/h 19.0 mph /  30.6 km/h 85 % 0.00 in /  0 mm 0 W/m2
18:45 50.7 °F /  10.4 °C 46.4 °F /  8 °C 29.58 in /  1001.6 hPa SW 16.0 mph /  25.7 km/h 19.0 mph /  30.6 km/h 85 % 0.00 in /  0 mm 0 W/m2
18:55 50.7 °F /  10.4 °C 46.4 °F /  8 °C 29.58 in /  1001.6 hPa SW 19.0 mph /  30.6 km/h 22.0 mph /  35.4 km/h 85 % 0.00 in /  0 mm 0 W/m2
19:00 50.8 °F /  10.4 °C 46.5 °F /  8.1 °C 29.58 in /  1001.6 hPa SW 18.0 mph /  29 km/h 18.0 mph /  29 km/h 85 % 0.00 in /  0 mm 0 W/m2
19:10 50.9 °F /  10.5 °C 46.2 °F /  7.9 °C 29.59 in /  1001.9 hPa SW 18.0 mph /  29 km/h 20.0 mph /  32.2 km/h 84 % 0.00 in /  0 mm 0 W/m2
19:15 50.9 °F /  10.5 °C 46.6 °F /  8.1 °C 29.59 in /  1001.9 hPa WSW 17.0 mph /  27.4 km/h 20.0 mph /  32.2 km/h 85 % 0.00 in /  0 mm 0 W/m2
19:20 50.9 °F /  10.5 °C 46.6 °F /  8.1 °C 29.60 in /  1002.3 hPa SW 16.0 mph /  25.7 km/h 16.0 mph /  25.7 km/h 85 % 0.00 in /  0 mm 0 W/m2
19:25 50.9 °F /  10.5 °C 46.6 °F /  8.1 °C 29.61 in /  1002.6 hPa WSW 13.0 mph /  20.9 km/h 16.0 mph /  25.7 km/h 85 % 0.00 in /  0 mm 0 W/m2
19:30 51.0 °F /  10.6 °C 46.6 °F /  8.1 °C 29.61 in /  1002.6 hPa WSW 11.0 mph /  17.7 km/h 11.0 mph /  17.7 km/h 85 % 0.00 in /  0 mm 0 W/m2
19:35 51.0 °F /  10.6 °C 46.6 °F /  8.1 °C 29.62 in /  1002.9 hPa SW 10.0 mph /  16.1 km/h 16.0 mph /  25.7 km/h 85 % 0.00 in /  0 mm 0 W/m2
19:45 51.2 °F /  10.7 °C 46.8 °F /  8.2 °C 29.63 in /  1003.3 hPa WSW 12.0 mph /  19.3 km/h 16.0 mph /  25.7 km/h 85 % 0.00 in /  0 mm 0 W/m2
19:50 51.3 °F /  10.7 °C 46.6 °F /  8.1 °C 29.63 in /  1003.3 hPa SSW 12.0 mph /  19.3 km/h 12.0 mph /  19.3 km/h 84 % 0.00 in /  0 mm 0 W/m2
19:55 51.3 °F /  10.7 °C 46.6 °F /  8.1 °C 29.64 in /  1003.6 hPa West 13.0 mph /  20.9 km/h 13.0 mph /  20.9 km/h 84 % 0.00 in /  0 mm 0 W/m2
20:00 51.3 °F /  10.7 °C 46.6 °F /  8.1 °C 29.64 in /  1003.6 hPa WSW 14.0 mph /  22.5 km/h 14.0 mph /  22.5 km/h 84 % 0.00 in /  0 mm 0 W/m2
20:05 51.3 °F /  10.7 °C 46.6 °F /  8.1 °C 29.63 in /  1003.3 hPa SW 11.0 mph /  17.7 km/h 16.0 mph /  25.7 km/h 84 % 0.00 in /  0 mm 0 W/m2
20:15 51.1 °F /  10.6 °C 46.7 °F /  8.2 °C 29.63 in /  1003.3 hPa South 11.0 mph /  17.7 km/h 16.0 mph /  25.7 km/h 85 % 0.00 in /  0 mm 0 W/m2
20:20 51.0 °F /  10.6 °C 46.6 °F /  8.1 °C 29.63 in /  1003.3 hPa SSW 10.0 mph /  16.1 km/h 10.0 mph /  16.1 km/h 85 % 0.00 in /  0 mm 0 W/m2
20:30 50.8 °F /  10.4 °C 46.5 °F /  8.1 °C 29.62 in /  1002.9 hPa SSE 9.0 mph /  14.5 km/h 9.0 mph /  14.5 km/h 85 % 0.00 in /  0 mm 0 W/m2
20:35 50.8 °F /  10.4 °C 46.8 °F /  8.2 °C 29.62 in /  1002.9 hPa SSW 9.0 mph /  14.5 km/h 16.0 mph /  25.7 km/h 86 % 0.00 in /  0 mm 0 W/m2
20:40 50.7 °F /  10.4 °C 46.7 °F /  8.2 °C 29.63 in /  1003.3 hPa SSW 9.0 mph /  14.5 km/h 9.0 mph /  14.5 km/h 86 % 0.00 in /  0 mm 0 W/m2
20:50 50.6 °F /  10.3 °C 46.6 °F /  8.1 °C 29.63 in /  1003.3 hPa SW 7.0 mph /  11.3 km/h 16.0 mph /  25.7 km/h 86 % 0.00 in /  0 mm 0 W/m2
20:55 50.5 °F /  10.3 °C 46.8 °F /  8.2 °C 29.63 in /  1003.3 hPa South 7.0 mph /  11.3 km/h 16.0 mph /  25.7 km/h 87 % 0.00 in /  0 mm 0 W/m2
21:00 50.4 °F /  10.2 °C 46.7 °F /  8.2 °C 29.63 in /  1003.3 hPa SSW 7.0 mph /  11.3 km/h 16.0 mph /  25.7 km/h 87 % 0.00 in /  0 mm 0 W/m2
21:05 50.3 °F /  10.2 °C 46.6 °F /  8.1 °C 29.63 in /  1003.3 hPa SSW 8.0 mph /  12.9 km/h 16.0 mph /  25.7 km/h 87 % 0.00 in /  0 mm 0 W/m2
21:10 50.3 °F /  10.2 °C 46.6 °F /  8.1 °C 29.63 in /  1003.3 hPa SW 9.0 mph /  14.5 km/h 16.0 mph /  25.7 km/h 87 % 0.00 in /  0 mm 0 W/m2
21:15 50.3 °F /  10.2 °C 46.6 °F /  8.1 °C 29.62 in /  1002.9 hPa SSW 10.0 mph /  16.1 km/h 16.0 mph /  25.7 km/h 87 % 0.00 in /  0 mm 0 W/m2
21:25 50.4 °F /  10.2 °C 46.7 °F /  8.2 °C 29.61 in /  1002.6 hPa SW 13.0 mph /  20.9 km/h 16.0 mph /  25.7 km/h 87 % 0.00 in /  0 mm 0 W/m2
21:30 50.4 °F /  10.2 °C 46.7 °F /  8.2 °C 29.60 in /  1002.3 hPa SSW 14.0 mph /  22.5 km/h 18.0 mph /  29 km/h 87 % 0.00 in /  0 mm 0 W/m2
21:35 50.4 °F /  10.2 °C 46.7 °F /  8.2 °C 29.60 in /  1002.3 hPa SSW 15.0 mph /  24.1 km/h 18.0 mph /  29 km/h 87 % 0.00 in /  0 mm 0 W/m2
21:40 50.4 °F /  10.2 °C 46.7 °F /  8.2 °C 29.60 in /  1002.3 hPa SW 16.0 mph /  25.7 km/h 16.0 mph /  25.7 km/h 87 % 0.00 in /  0 mm 0 W/m2
21:45 50.4 °F /  10.2 °C 46.7 °F /  8.2 °C 29.60 in /  1002.3 hPa SSW 15.0 mph /  24.1 km/h 16.0 mph /  25.7 km/h 87 % 0.00 in /  0 mm 0 W/m2
21:55 50.3 °F /  10.2 °C 46.6 °F /  8.1 °C 29.61 in /  1002.6 hPa SW 12.0 mph /  19.3 km/h 16.0 mph /  25.7 km/h 87 % 0.00 in /  0 mm 0 W/m2
22:05 50.2 °F /  10.1 °C 46.8 °F /  8.2 °C 29.61 in /  1002.6 hPa SSW 11.0 mph /  17.7 km/h 16.0 mph /  25.7 km/h 88 % 0.00 in /  0 mm 0 W/m2
22:10 50.2 °F /  10.1 °C 46.8 °F /  8.2 °C 29.61 in /  1002.6 hPa SW 11.0 mph /  17.7 km/h 16.0 mph /  25.7 km/h 88 % 0.00 in /  0 mm 0 W/m2
22:15 50.2 °F /  10.1 °C 46.8 °F /  8.2 °C 29.61 in /  1002.6 hPa SSW 9.0 mph /  14.5 km/h 16.0 mph /  25.7 km/h 88 % 0.00 in /  0 mm 0 W/m2
22:20 50.1 °F /  10.1 °C 46.7 °F /  8.2 °C 29.61 in /  1002.6 hPa SW 10.0 mph /  16.1 km/h 10.0 mph /  16.1 km/h 88 % 0.00 in /  0 mm 0 W/m2
22:30 49.8 °F /  9.9 °C 46.7 °F /  8.2 °C 29.60 in /  1002.3 hPa WSW 11.0 mph /  17.7 km/h 16.0 mph /  25.7 km/h 89 % 0.00 in /  0 mm 0 W/m2
22:35 49.7 °F /  9.8 °C 46.9 °F /  8.3 °C 29.60 in /  1002.3 hPa SW 12.0 mph /  19.3 km/h 16.0 mph /  25.7 km/h 90 % 0.00 in /  0 mm 0 W/m2
22:40 49.5 °F /  9.7 °C 46.7 °F /  8.2 °C 29.60 in /  1002.3 hPa SW 12.0 mph /  19.3 km/h 16.0 mph /  25.7 km/h 90 % 0.00 in /  0 mm 0 W/m2
22:45 49.5 °F /  9.7 °C 47.0 °F /  8.3 °C 29.60 in /  1002.3 hPa WSW 13.0 mph /  20.9 km/h 16.0 mph /  25.7 km/h 91 % 0.00 in /  0 mm 0 W/m2
22:50 49.5 °F /  9.7 °C 47.0 °F /  8.3 °C 29.60 in /  1002.3 hPa West 12.0 mph /  19.3 km/h 16.0 mph /  25.7 km/h 91 % 0.00 in /  0 mm 0 W/m2
22:55 49.4 °F /  9.7 °C 46.9 °F /  8.3 °C 29.60 in /  1002.3 hPa WSW 11.0 mph /  17.7 km/h 16.0 mph /  25.7 km/h 91 % 0.00 in /  0 mm 0 W/m2
23:05 49.3 °F /  9.6 °C 46.8 °F /  8.2 °C 29.60 in /  1002.3 hPa WSW 10.0 mph /  16.1 km/h 16.0 mph /  25.7 km/h 91 % 0.00 in /  0 mm 0 W/m2
23:10 49.2 °F /  9.6 °C 46.7 °F /  8.2 °C 29.60 in /  1002.3 hPa WSW 9.0 mph /  14.5 km/h 9.0 mph /  14.5 km/h 91 % 0.00 in /  0 mm 0 W/m2
23:15 49.1 °F /  9.5 °C 46.9 °F /  8.3 °C 29.60 in /  1002.3 hPa SW 8.0 mph /  12.9 km/h 16.0 mph /  25.7 km/h 92 % 0.00 in /  0 mm 0 W/m2
23:20 49.1 °F /  9.5 °C 46.9 °F /  8.3 °C 29.60 in /  1002.3 hPa SSW 8.0 mph /  12.9 km/h 16.0 mph /  25.7 km/h 92 % 0.00 in /  0 mm 0 W/m2
23:30 49.0 °F /  9.4 °C 46.8 °F /  8.2 °C 29.60 in /  1002.3 hPa SSW 8.0 mph /  12.9 km/h 16.0 mph /  25.7 km/h 92 % 0.00 in /  0 mm 0 W/m2
23:40 48.9 °F /  9.4 °C 47.0 °F /  8.3 °C 29.60 in /  1002.3 hPa SW 9.0 mph /  14.5 km/h 9.0 mph /  14.5 km/h 93 % 0.00 in /  0 mm 0 W/m2
23:45 48.9 °F /  9.4 °C 47.0 °F /  8.3 °C 29.60 in /  1002.3 hPa West 9.0 mph /  14.5 km/h 16.0 mph /  25.7 km/h 93 % 0.00 in /  0 mm 0 W/m2
23:50 48.9 °F /  9.4 °C 47.0 °F /  8.3 °C 29.60 in /  1002.3 hPa SW 9.0 mph /  14.5 km/h 16.0 mph /  25.7 km/h 93 % 0.00 in /  0 mm 0 W/m2
23:55 48.9 °F /  9.4 °C 47.0 °F /  8.3 °C 29.60 in /  1002.3 hPa SW 9.0 mph /  14.5 km/h 16.0 mph /  25.7 km/h 93 % 0.00 in /  0 mm 0 W/m2
Delerius-Weather
Compliments of Weather Underground - 2 mb

Data updates at regular intervals.